createdAt,value
2017-07-29T00:00:24.222Z,39.5
2017-07-29T00:01:25.151Z,40.0
2017-07-29T00:02:25.840Z,39.5
2017-07-29T00:03:26.527Z,39.6
2017-07-29T00:04:27.270Z,39.6
2017-07-29T00:05:28.012Z,39.9
2017-07-29T00:06:28.761Z,39.9
2017-07-29T00:07:29.448Z,40.1
2017-07-29T00:08:30.441Z,39.7
2017-07-29T00:09:31.198Z,39.9
2017-07-29T00:10:31.988Z,40.0
2017-07-29T00:11:32.740Z,39.9
2017-07-29T00:12:33.490Z,39.9
2017-07-29T00:13:34.240Z,39.8
2017-07-29T00:14:35.491Z,40.0
2017-07-29T00:15:36.165Z,40.1
2017-07-29T00:16:37.062Z,40.1
2017-07-29T00:17:37.746Z,39.8
2017-07-29T00:18:38.475Z,40.1
2017-07-29T00:19:39.476Z,39.8
2017-07-29T00:20:40.164Z,39.9
2017-07-29T00:21:41.238Z,40.0
2017-07-29T00:22:41.994Z,40.0
2017-07-29T00:23:42.678Z,40.0
2017-07-29T00:24:43.365Z,39.8
2017-07-29T00:25:44.055Z,40.0
2017-07-29T00:26:44.915Z,40.1
2017-07-29T00:27:45.860Z,40.0
2017-07-29T00:28:46.538Z,40.0
2017-07-29T00:29:47.235Z,40.0
2017-07-29T00:30:47.915Z,40.0
2017-07-29T00:31:48.613Z,40.0
2017-07-29T00:32:49.308Z,40.0
2017-07-29T00:33:50.354Z,40.0
2017-07-29T00:34:51.029Z,39.9
2017-07-29T00:35:51.725Z,39.9
2017-07-29T00:36:52.465Z,39.8
2017-07-29T00:37:53.139Z,40.0
2017-07-29T00:38:53.894Z,40.2
2017-07-29T00:39:54.835Z,39.9
2017-07-29T00:40:55.510Z,39.9
2017-07-29T00:41:56.595Z,40.0
2017-07-29T00:42:57.290Z,39.9
2017-07-29T00:43:58.036Z,39.9
2017-07-29T00:44:58.725Z,40.1
2017-07-29T00:45:59.719Z,40.1
2017-07-29T00:47:00.399Z,40.1
2017-07-29T00:48:01.238Z,40.1
2017-07-29T00:49:01.930Z,40.2
2017-07-29T00:50:02.609Z,40.1
2017-07-29T00:51:03.311Z,40.0
2017-07-29T00:52:04.250Z,40.1
2017-07-29T00:53:04.978Z,40.1
2017-07-29T00:54:05.664Z,40.1
2017-07-29T00:55:06.387Z,40.1
2017-07-29T00:56:07.037Z,40.1
2017-07-29T00:57:07.735Z,40.1
2017-07-29T00:58:09.149Z,40.1
2017-07-29T00:59:09.841Z,40.2
2017-07-29T01:00:10.527Z,40.1
2017-07-29T01:01:11.218Z,40.1
2017-07-29T01:02:11.900Z,40.2
2017-07-29T01:03:12.691Z,40.2
2017-07-29T01:04:13.662Z,40.1
2017-07-29T01:05:14.358Z,40.1
2017-07-29T01:06:15.111Z,40.3
2017-07-29T01:07:15.804Z,40.2
2017-07-29T01:08:16.694Z,40.2
2017-07-29T01:09:17.388Z,40.1
2017-07-29T01:10:18.316Z,40.2
2017-07-29T01:11:19.013Z,40.3
2017-07-29T01:12:19.692Z,40.1
2017-07-29T01:13:20.442Z,40.2
2017-07-29T01:14:21.123Z,40.1
2017-07-29T01:15:21.818Z,40.2
2017-07-29T01:16:22.832Z,40.1
2017-07-29T01:17:23.521Z,40.3
2017-07-29T01:18:24.261Z,40.3
2017-07-29T01:19:25.012Z,40.2
2017-07-29T01:20:25.692Z,40.1
2017-07-29T01:21:26.435Z,40.2
2017-07-29T01:22:27.428Z,40.3
2017-07-29T01:23:28.338Z,40.3
2017-07-29T01:24:28.995Z,40.4
2017-07-29T01:25:29.681Z,40.2
2017-07-29T01:26:30.392Z,40.2
2017-07-29T01:27:31.051Z,40.2
2017-07-29T01:28:32.297Z,40.1
2017-07-29T01:29:32.986Z,40.5
2017-07-29T01:30:33.672Z,40.3
2017-07-29T01:31:34.406Z,40.5
2017-07-29T01:32:35.114Z,40.4
2017-07-29T01:33:35.849Z,40.3
2017-07-29T01:34:36.526Z,40.6
2017-07-29T01:35:37.474Z,40.5
2017-07-29T01:36:38.164Z,40.3
2017-07-29T01:37:38.915Z,40.4
2017-07-29T01:38:39.667Z,40.3
2017-07-29T01:39:40.345Z,40.4
2017-07-29T01:40:41.040Z,40.4
2017-07-29T01:41:42.020Z,40.2
2017-07-29T01:42:42.728Z,40.2
2017-07-29T01:43:43.405Z,40.7
2017-07-29T01:44:44.106Z,40.5
2017-07-29T01:45:44.801Z,40.4
2017-07-29T01:46:45.481Z,40.5
2017-07-29T01:47:46.478Z,40.3
2017-07-29T01:48:47.175Z,40.5
2017-07-29T01:49:47.909Z,40.4
2017-07-29T01:50:48.596Z,40.4
2017-07-29T01:51:49.275Z,40.4
2017-07-29T01:52:50.028Z,40.4
2017-07-29T01:53:50.974Z,40.4
2017-07-29T01:54:51.651Z,40.4
2017-07-29T01:55:52.329Z,40.4
2017-07-29T01:56:53.080Z,40.4
2017-07-29T01:57:53.877Z,40.1
2017-07-29T01:58:54.604Z,40.2
2017-07-29T01:59:55.552Z,40.0
2017-07-29T02:00:56.240Z,40.1
2017-07-29T02:01:56.985Z,40.7
2017-07-29T02:02:57.722Z,41.1
2017-07-29T02:03:58.451Z,40.0
2017-07-29T02:04:59.203Z,40.8
2017-07-29T02:05:59.881Z,40.4
2017-07-29T02:07:00.927Z,40.1
2017-07-29T02:08:01.653Z,40.1
2017-07-29T02:09:02.343Z,40.4
2017-07-29T02:10:03.080Z,40.4
2017-07-29T02:11:03.776Z,40.5
2017-07-29T02:12:04.462Z,40.5
2017-07-29T02:13:05.662Z,40.4
2017-07-29T02:14:06.350Z,40.4
2017-07-29T02:15:07.035Z,40.8
2017-07-29T02:16:07.729Z,40.4
2017-07-29T02:17:08.427Z,40.9
2017-07-29T02:18:09.157Z,40.4
2017-07-29T02:19:10.101Z,40.3
2017-07-29T02:20:10.843Z,40.5
2017-07-29T02:21:11.531Z,40.5
2017-07-29T02:22:12.238Z,40.6
2017-07-29T02:23:13.035Z,40.9
2017-07-29T02:24:13.722Z,40.6
2017-07-29T02:25:14.667Z,40.5
2017-07-29T02:26:15.359Z,41.0
2017-07-29T02:27:16.104Z,40.6
2017-07-29T02:28:16.860Z,40.5
2017-07-29T02:29:17.581Z,40.6
2017-07-29T02:30:18.272Z,40.7
2017-07-29T02:31:19.204Z,40.6
2017-07-29T02:32:19.897Z,40.7
2017-07-29T02:33:20.574Z,40.6
2017-07-29T02:34:21.261Z,40.7
2017-07-29T02:35:21.981Z,40.7
2017-07-29T02:36:22.658Z,40.7
2017-07-29T02:37:23.382Z,40.8
2017-07-29T02:38:24.387Z,40.6
2017-07-29T02:39:25.065Z,40.7
2017-07-29T02:40:25.862Z,40.7
2017-07-29T02:41:26.545Z,40.6
2017-07-29T02:42:27.246Z,40.8
2017-07-29T02:43:27.933Z,40.7
2017-07-29T02:44:28.925Z,40.7
2017-07-29T02:45:29.764Z,40.7
2017-07-29T02:46:30.472Z,40.7
2017-07-29T02:47:31.152Z,40.7
2017-07-29T02:48:31.898Z,40.7
2017-07-29T02:49:32.563Z,40.7
2017-07-29T02:50:33.606Z,40.7
2017-07-29T02:51:34.301Z,40.7
2017-07-29T02:52:34.972Z,40.8
2017-07-29T02:53:35.676Z,40.8
2017-07-29T02:54:36.369Z,40.9
2017-07-29T02:55:37.255Z,40.7
2017-07-29T02:56:38.249Z,40.8
2017-07-29T02:57:38.925Z,40.8
2017-07-29T02:58:39.630Z,40.7
2017-07-29T02:59:40.327Z,40.7
2017-07-29T03:00:41.048Z,40.8
2017-07-29T03:01:41.807Z,40.7
2017-07-29T03:02:42.816Z,40.7
2017-07-29T03:03:43.467Z,40.7
2017-07-29T03:04:44.146Z,40.7
2017-07-29T03:05:44.852Z,40.6
2017-07-29T03:06:45.579Z,40.6
2017-07-29T03:07:46.325Z,40.7
2017-07-29T03:08:47.256Z,40.8
2017-07-29T03:09:47.955Z,40.8
2017-07-29T03:10:48.656Z,40.9
2017-07-29T03:11:49.339Z,41.1
2017-07-29T03:12:50.027Z,40.8
2017-07-29T03:13:50.721Z,40.8
2017-07-29T03:14:51.744Z,40.8
2017-07-29T03:15:52.412Z,40.9
2017-07-29T03:16:53.096Z,40.8
2017-07-29T03:17:53.779Z,40.9
2017-07-29T03:18:54.525Z,41.2
2017-07-29T03:19:55.201Z,41.0
2017-07-29T03:20:56.138Z,41.2
2017-07-29T03:21:56.878Z,41.1
2017-07-29T03:22:57.561Z,41.0
2017-07-29T03:23:58.254Z,40.8
2017-07-29T03:24:58.940Z,40.9
2017-07-29T03:25:59.628Z,41.0
2017-07-29T03:27:00.614Z,41.0
2017-07-29T03:28:01.298Z,40.9
2017-07-29T03:29:01.994Z,41.1
2017-07-29T03:30:02.723Z,40.9
2017-07-29T03:31:03.721Z,41.2
2017-07-29T03:32:04.401Z,40.9
2017-07-29T03:33:05.430Z,41.0
2017-07-29T03:34:06.117Z,40.4
2017-07-29T03:35:06.859Z,40.8
2017-07-29T03:36:07.609Z,40.9
2017-07-29T03:37:08.364Z,41.1
2017-07-29T03:38:09.071Z,41.0
2017-07-29T03:39:09.765Z,41.0
2017-07-29T03:40:10.767Z,40.9
2017-07-29T03:41:11.469Z,41.1
2017-07-29T03:42:12.154Z,40.9
2017-07-29T03:43:12.898Z,40.9
2017-07-29T03:44:13.582Z,40.8
2017-07-29T03:45:14.338Z,40.7
2017-07-29T03:46:15.340Z,40.6
2017-07-29T03:47:16.086Z,40.9
2017-07-29T03:48:16.738Z,40.9
2017-07-29T03:49:17.438Z,40.8
2017-07-29T03:50:18.137Z,40.5
2017-07-29T03:51:19.028Z,40.8
2017-07-29T03:52:20.033Z,40.8
2017-07-29T03:53:20.713Z,40.6
2017-07-29T03:54:21.450Z,40.6
2017-07-29T03:55:22.153Z,40.8
2017-07-29T03:56:22.840Z,40.7
2017-07-29T03:57:23.529Z,40.5
2017-07-29T03:58:24.476Z,40.7
2017-07-29T03:59:25.173Z,40.6
2017-07-29T04:00:25.853Z,40.9
2017-07-29T04:01:26.621Z,40.7
2017-07-29T04:02:27.452Z,40.6
2017-07-29T04:03:28.132Z,40.6
2017-07-29T04:04:29.082Z,40.5
2017-07-29T04:05:29.790Z,41.0
2017-07-29T04:06:30.475Z,40.7
2017-07-29T04:07:31.226Z,40.5
2017-07-29T04:08:31.896Z,40.7
2017-07-29T04:09:32.582Z,40.5
2017-07-29T04:10:33.533Z,40.5
2017-07-29T04:11:34.262Z,40.5
2017-07-29T04:12:34.987Z,40.5
2017-07-29T04:13:35.668Z,40.8
2017-07-29T04:14:36.348Z,40.9
2017-07-29T04:15:37.025Z,40.8
2017-07-29T04:16:38.019Z,41.4
2017-07-29T04:17:38.761Z,40.9
2017-07-29T04:18:39.503Z,40.7
2017-07-29T04:19:40.204Z,40.7
2017-07-29T04:20:40.890Z,41.0
2017-07-29T04:21:41.570Z,40.9
2017-07-29T04:22:42.678Z,41.0
2017-07-29T04:23:43.349Z,40.7
2017-07-29T04:24:44.049Z,40.7
2017-07-29T04:25:44.795Z,41.0
2017-07-29T04:26:45.493Z,40.5
2017-07-29T04:27:46.280Z,40.5
2017-07-29T04:28:47.286Z,40.8
2017-07-29T04:29:47.960Z,40.9
2017-07-29T04:30:48.653Z,41.2
2017-07-29T04:31:49.420Z,40.5
2017-07-29T04:32:50.107Z,40.7
2017-07-29T04:33:50.852Z,40.5
2017-07-29T04:34:51.867Z,40.8
2017-07-29T04:35:52.544Z,40.8
2017-07-29T04:36:53.248Z,41.3
2017-07-29T04:37:54.151Z,40.7
2017-07-29T04:38:54.905Z,40.8
2017-07-29T04:39:55.571Z,40.8
2017-07-29T04:40:56.573Z,40.7
2017-07-29T04:41:57.326Z,40.9
2017-07-29T04:42:58.063Z,40.5
2017-07-29T04:43:58.788Z,40.7
2017-07-29T04:44:59.530Z,40.8
2017-07-29T04:46:00.279Z,40.9
2017-07-29T04:47:01.321Z,40.6
2017-07-29T04:48:02.077Z,40.9
2017-07-29T04:49:02.804Z,40.6
2017-07-29T04:50:03.498Z,40.6
2017-07-29T04:51:04.237Z,40.9
2017-07-29T04:52:04.937Z,40.9
2017-07-29T04:53:05.673Z,40.7
2017-07-29T04:54:06.617Z,41.0
2017-07-29T04:55:07.293Z,40.9
2017-07-29T04:56:08.007Z,41.0
2017-07-29T04:57:08.756Z,41.1
2017-07-29T04:58:09.498Z,41.0
2017-07-29T04:59:10.182Z,41.0
2017-07-29T05:00:11.264Z,40.8
2017-07-29T05:01:11.953Z,41.0
2017-07-29T05:02:12.668Z,41.0
2017-07-29T05:03:13.625Z,41.0
2017-07-29T05:04:14.303Z,41.1
2017-07-29T05:05:14.992Z,40.9
2017-07-29T05:06:15.982Z,40.9
2017-07-29T05:07:16.721Z,41.1
2017-07-29T05:08:17.673Z,40.8
2017-07-29T05:09:18.374Z,40.8
2017-07-29T05:10:19.084Z,40.7
2017-07-29T05:11:19.754Z,41.2
2017-07-29T05:12:20.737Z,41.0
2017-07-29T05:13:21.595Z,40.7
2017-07-29T05:14:22.287Z,40.7
2017-07-29T05:15:22.977Z,40.7
2017-07-29T05:16:23.678Z,41.1
2017-07-29T05:17:24.351Z,41.0
2017-07-29T05:18:25.396Z,40.8
2017-07-29T05:19:26.088Z,40.8
2017-07-29T05:20:26.792Z,40.7
2017-07-29T05:21:27.555Z,40.6
2017-07-29T05:22:28.239Z,40.7
2017-07-29T05:23:28.982Z,40.8
2017-07-29T05:24:29.759Z,40.8
2017-07-29T05:25:30.763Z,40.6
2017-07-29T05:26:31.502Z,40.6
2017-07-29T05:27:32.199Z,40.7
2017-07-29T05:28:33.294Z,40.6
2017-07-29T05:29:34.015Z,40.2
2017-07-29T05:30:34.712Z,40.5
2017-07-29T05:31:35.652Z,40.9
2017-07-29T05:32:36.347Z,40.4
2017-07-29T05:33:37.249Z,40.4
2017-07-29T05:34:37.962Z,40.6
2017-07-29T05:35:38.689Z,40.4
2017-07-29T05:36:39.342Z,40.4
2017-07-29T05:37:40.043Z,40.3
2017-07-29T05:38:41.340Z,40.5
2017-07-29T05:39:42.008Z,40.3
2017-07-29T05:40:42.703Z,40.3
2017-07-29T05:41:43.378Z,40.1
2017-07-29T05:42:44.072Z,40.1
2017-07-29T05:43:44.770Z,40.2
2017-07-29T05:44:45.922Z,40.1
2017-07-29T05:45:46.610Z,40.3
2017-07-29T05:46:47.336Z,40.2
2017-07-29T05:47:48.003Z,40.1
2017-07-29T05:48:48.692Z,40.1
2017-07-29T05:49:49.404Z,40.1
2017-07-29T05:50:50.323Z,39.9
2017-07-29T05:51:51.012Z,39.9
2017-07-29T05:52:51.750Z,40.2
2017-07-29T05:53:52.406Z,40.0
2017-07-29T05:54:53.462Z,39.9
2017-07-29T05:55:54.142Z,40.0
2017-07-29T05:56:55.145Z,39.9
2017-07-29T05:57:55.833Z,40.2
2017-07-29T05:58:56.525Z,39.7
2017-07-29T05:59:57.372Z,39.7
2017-07-29T06:00:58.060Z,40.1
2017-07-29T06:01:58.780Z,39.9
2017-07-29T06:02:59.708Z,39.8
2017-07-29T06:04:00.524Z,39.5
2017-07-29T06:05:01.188Z,39.5
2017-07-29T06:06:01.900Z,39.7
2017-07-29T06:07:02.585Z,39.5
2017-07-29T06:08:03.280Z,39.6
2017-07-29T06:09:04.052Z,39.7
2017-07-29T06:10:04.992Z,39.5
2017-07-29T06:11:05.739Z,39.6
2017-07-29T06:12:06.432Z,39.7
2017-07-29T06:13:07.154Z,39.7
2017-07-29T06:14:07.825Z,39.6
2017-07-29T06:15:08.565Z,39.7
2017-07-29T06:16:09.528Z,39.6
2017-07-29T06:17:10.211Z,39.3
2017-07-29T06:18:10.960Z,39.4
2017-07-29T06:19:11.754Z,39.4
2017-07-29T06:20:12.509Z,39.3
2017-07-29T06:21:13.188Z,39.5
2017-07-29T06:22:14.228Z,39.3
2017-07-29T06:23:14.930Z,39.4
2017-07-29T06:24:15.628Z,39.5
2017-07-29T06:25:16.320Z,39.2
2017-07-29T06:26:17.009Z,39.3
2017-07-29T06:27:17.708Z,39.4
2017-07-29T06:28:18.694Z,39.4
2017-07-29T06:29:19.376Z,39.1
2017-07-29T06:30:20.103Z,39.1
2017-07-29T06:31:20.789Z,39.2
2017-07-29T06:32:21.469Z,39.2
2017-07-29T06:33:22.164Z,39.2
2017-07-29T06:34:23.262Z,39.1
2017-07-29T06:35:23.972Z,39.0
2017-07-29T06:36:24.656Z,39.0
2017-07-29T06:37:25.386Z,39.1
2017-07-29T06:38:26.053Z,39.0
2017-07-29T06:39:26.828Z,39.0
2017-07-29T06:40:27.741Z,39.2
2017-07-29T06:41:28.441Z,39.0
2017-07-29T06:42:29.155Z,38.9
2017-07-29T06:43:29.813Z,38.9
2017-07-29T06:44:30.603Z,39.0
2017-07-29T06:45:31.300Z,38.9
2017-07-29T06:46:32.264Z,38.9
2017-07-29T06:47:32.974Z,38.9
2017-07-29T06:48:33.693Z,39.2
2017-07-29T06:49:34.397Z,38.9
2017-07-29T06:50:35.086Z,38.8
2017-07-29T06:51:36.114Z,38.9
2017-07-29T06:52:37.041Z,38.9
2017-07-29T06:53:37.739Z,38.9
2017-07-29T06:54:38.485Z,39.0
2017-07-29T06:55:39.223Z,39.0
2017-07-29T06:56:39.988Z,39.0
2017-07-29T06:57:40.670Z,39.2
2017-07-29T06:58:41.613Z,39.2
2017-07-29T06:59:42.358Z,39.1
2017-07-29T07:00:43.100Z,38.8
2017-07-29T07:01:43.868Z,39.3
2017-07-29T07:02:44.568Z,39.1
2017-07-29T07:03:45.286Z,39.2
2017-07-29T07:04:46.253Z,38.8
2017-07-29T07:05:47.062Z,38.8
2017-07-29T07:06:47.742Z,38.8
2017-07-29T07:07:48.453Z,38.9
2017-07-29T07:08:49.135Z,38.9
2017-07-29T07:09:49.891Z,39.2
2017-07-29T07:10:50.872Z,38.8
2017-07-29T07:11:51.601Z,38.8
2017-07-29T07:12:52.299Z,38.8
2017-07-29T07:13:52.998Z,38.8
2017-07-29T07:14:53.686Z,38.8
2017-07-29T07:15:54.387Z,38.8
2017-07-29T07:16:55.555Z,38.8
2017-07-29T07:17:56.327Z,38.8
2017-07-29T07:18:57.000Z,38.8
2017-07-29T07:19:57.691Z,38.8
2017-07-29T07:20:58.377Z,38.8
2017-07-29T07:21:59.061Z,39.2
2017-07-29T07:23:00.075Z,38.8
2017-07-29T07:24:00.834Z,38.8
2017-07-29T07:25:01.519Z,38.8
2017-07-29T07:26:02.291Z,38.8
2017-07-29T07:27:03.156Z,38.8
2017-07-29T07:28:03.835Z,38.9
2017-07-29T07:29:04.769Z,38.9
2017-07-29T07:30:05.466Z,38.8
2017-07-29T07:31:06.182Z,39.0
2017-07-29T07:32:06.861Z,39.0
2017-07-29T07:33:07.543Z,38.8
2017-07-29T07:34:08.236Z,38.8
2017-07-29T07:35:09.167Z,38.9
2017-07-29T07:36:09.862Z,38.9
2017-07-29T07:37:10.657Z,38.8
2017-07-29T07:38:11.359Z,38.8
2017-07-29T07:39:12.051Z,38.9
2017-07-29T07:40:12.746Z,38.8
2017-07-29T07:41:13.695Z,39.0
2017-07-29T07:42:14.482Z,38.8
2017-07-29T07:43:15.493Z,38.9
2017-07-29T07:44:16.209Z,38.8
2017-07-29T07:45:16.903Z,39.0
2017-07-29T07:46:17.573Z,38.9
2017-07-29T07:47:18.588Z,38.9
2017-07-29T07:48:19.749Z,39.0
2017-07-29T07:49:20.438Z,38.7
2017-07-29T07:50:21.152Z,39.0
2017-07-29T07:51:21.826Z,38.6
2017-07-29T07:52:22.529Z,39.1
2017-07-29T07:53:23.377Z,39.1
2017-07-29T07:54:24.315Z,38.7
2017-07-29T07:55:25.013Z,38.8
2017-07-29T07:56:25.703Z,38.6
2017-07-29T07:57:26.442Z,38.4
2017-07-29T07:58:27.139Z,38.5
2017-07-29T07:59:27.833Z,38.5
2017-07-29T08:00:28.585Z,38.4
2017-07-29T08:01:29.292Z,38.4
2017-07-29T08:02:30.104Z,38.5
2017-07-29T08:03:30.799Z,38.6
2017-07-29T08:04:31.480Z,38.5
2017-07-29T08:05:32.173Z,38.5
2017-07-29T08:06:33.187Z,38.6
2017-07-29T08:07:33.886Z,38.5
2017-07-29T08:08:34.579Z,38.5
2017-07-29T08:09:35.258Z,38.4
2017-07-29T08:10:35.952Z,38.3
2017-07-29T08:11:36.655Z,38.6
2017-07-29T08:12:37.789Z,38.4
2017-07-29T08:13:38.577Z,38.4
2017-07-29T08:14:39.274Z,38.3
2017-07-29T08:15:40.028Z,38.4
2017-07-29T08:16:40.722Z,38.5
2017-07-29T08:17:41.490Z,38.4
2017-07-29T08:18:42.451Z,38.3
2017-07-29T08:19:43.144Z,38.5
2017-07-29T08:20:44.010Z,38.3
2017-07-29T08:21:44.854Z,38.2
2017-07-29T08:22:45.533Z,38.5
2017-07-29T08:23:46.285Z,38.3
2017-07-29T08:24:46.985Z,38.3
2017-07-29T08:25:47.934Z,38.1
2017-07-29T08:26:48.698Z,38.2
2017-07-29T08:27:49.374Z,38.1
2017-07-29T08:28:50.086Z,38.2
2017-07-29T08:29:50.782Z,38.2
2017-07-29T08:30:51.475Z,38.2
2017-07-29T08:31:52.427Z,37.9
2017-07-29T08:32:53.223Z,38.0
2017-07-29T08:33:55.033Z,38.3
2017-07-29T08:34:55.716Z,37.9
2017-07-29T08:35:56.467Z,37.9
2017-07-29T08:36:57.211Z,38.2
2017-07-29T08:37:58.271Z,38.0
2017-07-29T08:38:59.031Z,37.8
2017-07-29T08:39:59.796Z,38.0
2017-07-29T08:41:00.503Z,37.7
2017-07-29T08:42:01.200Z,38.1
2017-07-29T08:43:02.031Z,37.7
2017-07-29T08:44:02.959Z,37.6
2017-07-29T08:45:03.681Z,38.2
2017-07-29T08:46:04.464Z,38.2
2017-07-29T08:47:05.142Z,37.5
2017-07-29T08:48:06.149Z,37.6
2017-07-29T08:49:07.143Z,37.7
2017-07-29T08:50:08.200Z,37.7
2017-07-29T08:51:08.890Z,37.7
2017-07-29T08:52:09.642Z,37.9
2017-07-29T08:53:10.391Z,37.9
2017-07-29T08:54:11.093Z,37.9
2017-07-29T08:55:11.777Z,37.7
2017-07-29T08:56:12.779Z,37.7
2017-07-29T08:57:13.470Z,37.8
2017-07-29T08:58:14.159Z,37.8
2017-07-29T08:59:14.933Z,38.0
2017-07-29T09:00:15.709Z,37.8
2017-07-29T09:01:16.408Z,37.8
2017-07-29T09:02:17.467Z,37.8
2017-07-29T09:03:18.155Z,37.7
2017-07-29T09:04:18.852Z,37.4
2017-07-29T09:05:19.534Z,37.6
2017-07-29T09:06:20.214Z,37.6
2017-07-29T09:07:20.995Z,37.4
2017-07-29T09:08:21.929Z,37.7
2017-07-29T09:09:22.675Z,37.6
2017-07-29T09:10:23.433Z,37.5
2017-07-29T09:11:24.132Z,37.4
2017-07-29T09:12:24.828Z,37.6
2017-07-29T09:13:25.518Z,37.5
2017-07-29T09:14:26.482Z,37.6
2017-07-29T09:15:27.163Z,37.6
2017-07-29T09:16:27.843Z,37.5
2017-07-29T09:17:28.549Z,37.3
2017-07-29T09:18:29.250Z,37.5
2017-07-29T09:19:30.011Z,37.4
2017-07-29T09:20:30.967Z,37.3
2017-07-29T09:21:31.663Z,37.4
2017-07-29T09:22:32.397Z,37.2
2017-07-29T09:23:33.101Z,37.4
2017-07-29T09:24:33.809Z,37.2
2017-07-29T09:25:34.565Z,37.2
2017-07-29T09:26:35.541Z,37.3
2017-07-29T09:27:36.596Z,37.1
2017-07-29T09:28:37.320Z,37.3
2017-07-29T09:29:37.974Z,37.1
2017-07-29T09:30:38.677Z,37.1
2017-07-29T09:31:39.375Z,37.1
2017-07-29T09:32:40.458Z,37.1
2017-07-29T09:33:41.193Z,37.3
2017-07-29T09:34:41.893Z,37.3
2017-07-29T09:35:42.593Z,37.0
2017-07-29T09:36:43.322Z,37.5
2017-07-29T09:37:43.998Z,37.4
2017-07-29T09:38:44.954Z,37.1
2017-07-29T09:39:45.655Z,37.3
2017-07-29T09:40:46.346Z,37.3
2017-07-29T09:41:47.041Z,37.1
2017-07-29T09:42:47.807Z,37.3
2017-07-29T09:43:48.577Z,37.1
2017-07-29T09:44:49.529Z,37.1
2017-07-29T09:45:50.280Z,37.3
2017-07-29T09:46:50.969Z,37.1
2017-07-29T09:47:51.805Z,36.9
2017-07-29T09:48:52.607Z,36.9
2017-07-29T09:49:53.366Z,36.9
2017-07-29T09:50:54.369Z,37.1
2017-07-29T09:51:55.051Z,37.2
2017-07-29T09:52:55.976Z,36.8
2017-07-29T09:53:56.682Z,37.2
2017-07-29T09:54:57.425Z,37.1
2017-07-29T09:55:58.427Z,37.0
2017-07-29T09:56:59.437Z,36.7
2017-07-29T09:58:00.523Z,36.7
2017-07-29T09:59:01.229Z,37.0
2017-07-29T10:00:01.935Z,37.2
2017-07-29T10:01:02.624Z,37.2
2017-07-29T10:02:03.323Z,37.2
2017-07-29T10:03:04.491Z,36.8
2017-07-29T10:04:05.160Z,36.8
2017-07-29T10:05:05.854Z,36.9
2017-07-29T10:06:06.600Z,36.8
2017-07-29T10:07:07.290Z,37.1
2017-07-29T10:08:07.993Z,37.1
2017-07-29T10:09:08.940Z,36.8
2017-07-29T10:10:09.660Z,36.9
2017-07-29T10:11:10.342Z,37.0
2017-07-29T10:12:11.022Z,36.9
2017-07-29T10:13:11.733Z,36.8
2017-07-29T10:14:12.425Z,37.0
2017-07-29T10:15:13.455Z,36.3
2017-07-29T10:16:14.127Z,36.6
2017-07-29T10:17:14.842Z,36.9
2017-07-29T10:18:15.573Z,36.6
2017-07-29T10:19:16.283Z,36.5
2017-07-29T10:20:16.983Z,36.7
2017-07-29T10:21:17.995Z,36.9
2017-07-29T10:22:18.942Z,36.6
2017-07-29T10:23:19.751Z,36.5
2017-07-29T10:24:20.431Z,36.7
2017-07-29T10:25:21.135Z,36.6
2017-07-29T10:26:21.832Z,36.7
2017-07-29T10:27:22.585Z,36.8
2017-07-29T10:28:23.676Z,36.7
2017-07-29T10:29:24.383Z,36.9
2017-07-29T10:30:25.078Z,36.5
2017-07-29T10:31:25.787Z,36.9
2017-07-29T10:32:26.477Z,36.5
2017-07-29T10:33:27.241Z,36.9
2017-07-29T10:34:27.971Z,36.6
2017-07-29T10:35:28.667Z,37.0
2017-07-29T10:36:29.381Z,36.6
2017-07-29T10:37:30.071Z,36.5
2017-07-29T10:38:30.836Z,36.4
2017-07-29T10:39:31.822Z,36.3
2017-07-29T10:40:32.522Z,36.3
2017-07-29T10:41:33.220Z,36.5
2017-07-29T10:42:33.910Z,36.4
2017-07-29T10:43:34.605Z,36.4
2017-07-29T10:44:35.301Z,36.3
2017-07-29T10:45:36.231Z,36.4
2017-07-29T10:46:36.940Z,36.4
2017-07-29T10:47:37.634Z,36.4
2017-07-29T10:48:38.320Z,36.4
2017-07-29T10:49:39.042Z,36.5
2017-07-29T10:50:39.850Z,36.5
2017-07-29T10:51:40.507Z,36.5
2017-07-29T10:52:41.452Z,36.4
2017-07-29T10:53:42.196Z,36.4
2017-07-29T10:54:43.178Z,36.3
2017-07-29T10:55:43.872Z,36.2
2017-07-29T10:56:44.566Z,36.3
2017-07-29T10:57:45.251Z,36.5
2017-07-29T10:58:46.245Z,36.4
2017-07-29T10:59:46.962Z,36.5
2017-07-29T11:00:47.635Z,36.5
2017-07-29T11:01:48.324Z,36.3
2017-07-29T11:02:49.006Z,36.5
2017-07-29T11:03:49.731Z,36.3
2017-07-29T11:04:50.710Z,36.4
2017-07-29T11:05:51.411Z,36.5
2017-07-29T11:06:52.110Z,36.5
2017-07-29T11:07:52.805Z,36.4
2017-07-29T11:08:53.507Z,36.1
2017-07-29T11:09:54.268Z,36.3
2017-07-29T11:10:55.272Z,36.2
2017-07-29T11:11:56.025Z,36.1
2017-07-29T11:12:57.124Z,36.2
2017-07-29T11:13:57.823Z,36.5
2017-07-29T11:14:58.625Z,36.3
2017-07-29T11:15:59.332Z,36.2
2017-07-29T11:17:00.346Z,36.3
2017-07-29T11:18:01.078Z,36.1
2017-07-29T11:19:01.857Z,36.0
2017-07-29T11:20:02.831Z,36.1
2017-07-29T11:21:03.559Z,36.0
2017-07-29T11:22:04.281Z,36.1
2017-07-29T11:23:05.275Z,36.1
2017-07-29T11:24:06.003Z,36.0
2017-07-29T11:25:06.811Z,36.3
2017-07-29T11:26:07.481Z,36.1
2017-07-29T11:27:08.205Z,36.2
2017-07-29T11:28:08.899Z,36.2
2017-07-29T11:29:09.893Z,36.5
2017-07-29T11:30:10.674Z,36.2
2017-07-29T11:31:11.377Z,36.1
2017-07-29T11:32:12.075Z,36.2
2017-07-29T11:33:12.885Z,36.1
2017-07-29T11:34:13.572Z,36.4
2017-07-29T11:35:14.353Z,36.4
2017-07-29T11:36:15.445Z,36.4
2017-07-29T11:37:16.132Z,36.5
2017-07-29T11:38:16.814Z,36.5
2017-07-29T11:39:17.528Z,36.8
2017-07-29T11:40:18.205Z,36.4
2017-07-29T11:41:19.013Z,36.7
2017-07-29T11:42:20.033Z,36.8
2017-07-29T11:43:20.805Z,36.5
2017-07-29T11:44:21.483Z,36.6
2017-07-29T11:45:22.231Z,36.5
2017-07-29T11:46:22.917Z,36.4
2017-07-29T11:47:23.698Z,36.7
2017-07-29T11:48:24.635Z,36.8
2017-07-29T11:49:25.429Z,36.7
2017-07-29T11:50:26.153Z,36.6
2017-07-29T11:51:26.853Z,36.6
2017-07-29T11:52:27.602Z,36.6
2017-07-29T11:53:28.301Z,36.9
2017-07-29T11:54:29.349Z,36.5
2017-07-29T11:55:30.066Z,36.7
2017-07-29T11:56:30.757Z,36.6
2017-07-29T11:57:31.523Z,36.9
2017-07-29T11:58:32.279Z,36.6
2017-07-29T11:59:32.974Z,36.8
2017-07-29T12:00:33.915Z,36.9
2017-07-29T12:01:34.620Z,36.6
2017-07-29T12:02:35.302Z,36.6
2017-07-29T12:03:36.014Z,36.4
2017-07-29T12:04:36.697Z,36.3
2017-07-29T12:05:37.702Z,36.5
2017-07-29T12:06:38.406Z,36.5
2017-07-29T12:07:39.472Z,36.4
2017-07-29T12:08:40.165Z,36.3
2017-07-29T12:09:40.888Z,36.3
2017-07-29T12:10:41.560Z,36.2
2017-07-29T12:11:42.310Z,36.3
2017-07-29T12:12:43.012Z,36.1
2017-07-29T12:13:43.995Z,36.1
2017-07-29T12:14:44.694Z,36.2
2017-07-29T12:15:45.457Z,36.1
2017-07-29T12:16:46.210Z,36.5
2017-07-29T12:17:47.062Z,36.1
2017-07-29T12:18:47.809Z,36.3
2017-07-29T12:19:48.745Z,36.2
2017-07-29T12:20:49.507Z,36.3
2017-07-29T12:21:50.254Z,36.4
2017-07-29T12:22:50.941Z,36.4
2017-07-29T12:23:51.647Z,36.4
2017-07-29T12:24:52.313Z,36.3
2017-07-29T12:25:53.251Z,36.5
2017-07-29T12:26:54.268Z,36.3
2017-07-29T12:27:54.957Z,36.6
2017-07-29T12:28:55.739Z,36.9
2017-07-29T12:29:56.447Z,36.7
2017-07-29T12:30:57.240Z,36.9
2017-07-29T12:31:58.323Z,36.8
2017-07-29T12:32:59.028Z,36.8
2017-07-29T12:33:59.805Z,37.1
2017-07-29T12:35:00.611Z,36.9
2017-07-29T12:36:01.379Z,37.0
2017-07-29T12:37:02.088Z,36.9
2017-07-29T12:38:03.061Z,37.1
2017-07-29T12:39:03.830Z,37.2
2017-07-29T12:40:04.507Z,37.3
2017-07-29T12:41:05.257Z,37.2
2017-07-29T12:42:05.955Z,36.9
2017-07-29T12:43:06.914Z,37.1
2017-07-29T12:44:07.877Z,37.2
2017-07-29T12:45:08.589Z,37.1
2017-07-29T12:46:09.353Z,37.1
2017-07-29T12:47:10.431Z,37.4
2017-07-29T12:48:11.206Z,37.2
2017-07-29T12:49:11.938Z,37.2
2017-07-29T12:50:12.618Z,37.4
2017-07-29T12:51:13.644Z,37.4
2017-07-29T12:52:14.337Z,37.6
2017-07-29T12:53:15.021Z,37.5
2017-07-29T12:54:15.730Z,37.5
2017-07-29T12:55:16.421Z,37.6
2017-07-29T12:56:17.309Z,37.6
2017-07-29T12:57:18.302Z,37.7
2017-07-29T12:58:18.980Z,37.8
2017-07-29T12:59:19.740Z,37.3
2017-07-29T13:00:20.401Z,37.5
2017-07-29T13:01:21.193Z,37.6
2017-07-29T13:02:21.972Z,37.7
2017-07-29T13:03:23.249Z,37.8
2017-07-29T13:04:23.954Z,37.9
2017-07-29T13:05:24.707Z,37.8
2017-07-29T13:06:25.399Z,37.8
2017-07-29T13:07:26.143Z,37.8
2017-07-29T13:08:26.808Z,37.9
2017-07-29T13:09:27.838Z,37.8
2017-07-29T13:10:28.692Z,37.7
2017-07-29T13:11:29.422Z,37.7
2017-07-29T13:12:30.106Z,37.7
2017-07-29T13:13:30.791Z,37.8
2017-07-29T13:14:31.526Z,38.4
2017-07-29T13:15:32.554Z,37.6
2017-07-29T13:16:33.347Z,37.5
2017-07-29T13:17:34.062Z,37.7
2017-07-29T13:18:34.835Z,38.3
2017-07-29T13:19:35.518Z,37.6
2017-07-29T13:20:36.259Z,37.6
2017-07-29T13:21:37.617Z,37.6
2017-07-29T13:22:38.320Z,37.6
2017-07-29T13:23:39.162Z,37.6
2017-07-29T13:24:39.873Z,37.5
2017-07-29T13:25:40.571Z,37.5
2017-07-29T13:26:41.263Z,37.7
2017-07-29T13:27:42.280Z,37.7
2017-07-29T13:28:42.956Z,37.7